createdAt,value
2016-11-09T00:00:51.944Z,-12.09
2016-11-09T00:01:51.896Z,-12.27
2016-11-09T00:02:51.887Z,-12.32
2016-11-09T00:03:51.873Z,-12.12
2016-11-09T00:04:51.822Z,-12.23
2016-11-09T00:05:51.808Z,-12.24
2016-11-09T00:06:51.769Z,-12.23
2016-11-09T00:07:51.738Z,-12.19
2016-11-09T00:08:51.745Z,-12.19
2016-11-09T00:09:51.685Z,-12.06
2016-11-09T00:10:51.670Z,-12.03
2016-11-09T00:11:51.632Z,-12
2016-11-09T00:12:51.618Z,-12.03
2016-11-09T00:13:51.629Z,-12.13
2016-11-09T00:14:51.580Z,-12.19
2016-11-09T00:15:51.540Z,-12.19
2016-11-09T00:16:51.523Z,-12.19
2016-11-09T00:17:51.499Z,-12.19
2016-11-09T00:18:51.457Z,-12.12
2016-11-09T00:19:51.456Z,-12.08
2016-11-09T00:20:51.425Z,-11.98
2016-11-09T00:21:51.377Z,-11.92
2016-11-09T00:22:51.360Z,-11.84
2016-11-09T00:23:51.334Z,-11.9
2016-11-09T00:24:51.315Z,-11.88
2016-11-09T00:25:51.273Z,-11.88
2016-11-09T00:26:51.242Z,-12.05
2016-11-09T00:27:51.239Z,-12.06
2016-11-09T00:28:51.214Z,-12.09
2016-11-09T00:29:51.179Z,-12.12
2016-11-09T00:30:51.147Z,-12.06
2016-11-09T00:31:51.140Z,-12.12
2016-11-09T00:32:51.119Z,-12.06
2016-11-09T00:33:51.082Z,-12.28
2016-11-09T00:34:51.066Z,-12.31
2016-11-09T00:35:51.024Z,-12.32
2016-11-09T00:36:51.023Z,-12.31
2016-11-09T00:37:50.984Z,-12.38
2016-11-09T00:38:50.955Z,-12.3
2016-11-09T00:39:50.931Z,-12.39
2016-11-09T00:40:50.893Z,-12.45
2016-11-09T00:41:50.867Z,-12.39
2016-11-09T00:42:50.864Z,-12.32
2016-11-09T00:43:50.829Z,-12.36
2016-11-09T00:44:50.828Z,-12.32
2016-11-09T00:45:50.770Z,-12.48
2016-11-09T00:46:50.739Z,-12.52
2016-11-09T00:47:50.737Z,-12.57
2016-11-09T00:48:50.672Z,-12.66
2016-11-09T00:49:50.665Z,-12.62
2016-11-09T00:50:50.633Z,-12.64
2016-11-09T00:51:50.605Z,-12.63
2016-11-09T00:52:50.578Z,-12.59
2016-11-09T00:53:50.568Z,-12.62
2016-11-09T00:54:50.533Z,-12.62
2016-11-09T00:55:50.521Z,-12.59
2016-11-09T00:56:50.478Z,-12.57
2016-11-09T00:57:50.467Z,-12.56
2016-11-09T00:58:50.409Z,-12.43
2016-11-09T00:59:50.402Z,-12.57
2016-11-09T01:00:50.373Z,-12.59
2016-11-09T01:01:50.543Z,-12.52
2016-11-09T01:02:50.352Z,-12.46
2016-11-09T01:03:50.298Z,-12.32
2016-11-09T01:04:50.264Z,-12.21
2016-11-09T01:05:50.252Z,-12
2016-11-09T01:06:50.214Z,-11.99
2016-11-09T01:07:50.204Z,-11.98
2016-11-09T01:08:50.160Z,-11.9
2016-11-09T01:09:50.129Z,-11.82
2016-11-09T01:10:50.131Z,-11.7
2016-11-09T01:11:50.111Z,-11.61
2016-11-09T01:12:50.072Z,-11.64
2016-11-09T01:13:50.033Z,-11.67
2016-11-09T01:14:50.004Z,-11.61
2016-11-09T01:15:49.965Z,-11.55
2016-11-09T01:16:49.960Z,-11.58
2016-11-09T01:17:49.916Z,-11.7
2016-11-09T01:18:49.907Z,-11.9
2016-11-09T01:19:49.898Z,-11.95
2016-11-09T01:20:49.875Z,-12.03
2016-11-09T01:21:49.842Z,-12.16
2016-11-09T01:22:49.805Z,-12.23
2016-11-09T01:23:49.776Z,-12.27
2016-11-09T01:24:49.749Z,-12.32
2016-11-09T01:25:49.736Z,-12.41
2016-11-09T01:26:49.715Z,-12.48
2016-11-09T01:27:49.658Z,-12.52
2016-11-09T01:28:49.647Z,-12.45
2016-11-09T01:29:49.626Z,-12.34
2016-11-09T01:30:49.584Z,-12.32
2016-11-09T01:31:49.569Z,-12.32
2016-11-09T01:32:49.560Z,-12.3
2016-11-09T01:33:49.525Z,-12.32
2016-11-09T01:34:49.510Z,-12.34
2016-11-09T01:35:49.456Z,-12.39
2016-11-09T01:36:49.425Z,-12.36
2016-11-09T01:37:49.407Z,-12.42
2016-11-09T01:38:49.381Z,-12.41
2016-11-09T01:39:49.366Z,-12.21
2016-11-09T01:40:49.323Z,-12.13
2016-11-09T01:41:49.316Z,-12.2
2016-11-09T01:42:49.325Z,-12.32
2016-11-09T01:43:49.271Z,-12.32
2016-11-09T01:44:49.236Z,-12.34
2016-11-09T01:45:49.191Z,-12.3
2016-11-09T01:46:49.488Z,-12.38
2016-11-09T01:47:49.144Z,-12.38
2016-11-09T01:48:49.150Z,-12.34
2016-11-09T01:49:49.101Z,-12.24
2016-11-09T01:50:49.074Z,-12.28
2016-11-09T01:51:49.034Z,-12.27
2016-11-09T01:52:49.028Z,-12.24
2016-11-09T01:53:49.010Z,-12.24
2016-11-09T01:54:48.987Z,-12.2
2016-11-09T01:55:48.951Z,-12.1
2016-11-09T01:56:48.930Z,-12.08
2016-11-09T01:57:48.918Z,-12.12
2016-11-09T01:58:48.870Z,-12.19
2016-11-09T01:59:48.850Z,-12.12
2016-11-09T02:00:48.801Z,-11.98
2016-11-09T02:01:48.795Z,-11.88
2016-11-09T02:02:48.771Z,-11.88
2016-11-09T02:03:48.754Z,-11.9
2016-11-09T02:04:48.711Z,-11.85
2016-11-09T02:05:48.698Z,-11.7
2016-11-09T02:06:48.686Z,-11.63
2016-11-09T02:07:48.641Z,-11.52
2016-11-09T02:08:48.610Z,-11.43
2016-11-09T02:09:48.577Z,-11.64
2016-11-09T02:10:48.546Z,-11.7
2016-11-09T02:11:48.528Z,-11.99
2016-11-09T02:12:48.543Z,-12.13
2016-11-09T02:13:48.489Z,-12.39
2016-11-09T02:14:48.459Z,-12.56
2016-11-09T02:15:48.444Z,-12.52
2016-11-09T02:16:48.704Z,-12.63
2016-11-09T02:17:48.407Z,-12.57
2016-11-09T02:18:48.359Z,-12.56
2016-11-09T02:19:48.350Z,-12.63
2016-11-09T02:20:48.322Z,-12.75
2016-11-09T02:21:48.282Z,-12.72
2016-11-09T02:22:48.251Z,-12.74
2016-11-09T02:23:48.212Z,-12.66
2016-11-09T02:24:48.211Z,-12.57
2016-11-09T02:25:48.173Z,-12.56
2016-11-09T02:26:48.132Z,-12.39
2016-11-09T02:27:48.119Z,-12.34
2016-11-09T02:28:48.084Z,-12.27
2016-11-09T02:29:48.064Z,-12.28
2016-11-09T02:30:48.069Z,-12.36
2016-11-09T02:31:48.015Z,-12.32
2016-11-09T02:32:47.971Z,-12.3
2016-11-09T02:33:47.990Z,-12.31
2016-11-09T02:34:47.923Z,-12.17
2016-11-09T02:35:47.912Z,-12.21
2016-11-09T02:36:47.883Z,-12.03
2016-11-09T02:37:47.867Z,-12.08
2016-11-09T02:38:47.856Z,-12.1
2016-11-09T02:39:48.095Z,-12.12
2016-11-09T02:40:47.781Z,-12.17
2016-11-09T02:41:47.769Z,-12.1
2016-11-09T02:42:47.737Z,-12.12
2016-11-09T02:43:47.711Z,-12.09
2016-11-09T02:44:47.684Z,-12.23
2016-11-09T02:45:47.640Z,-12.17
2016-11-09T02:46:47.938Z,-12.21
2016-11-09T02:47:47.607Z,-12.23
2016-11-09T02:48:47.589Z,-12.41
2016-11-09T02:49:47.564Z,-12.31
2016-11-09T02:50:47.510Z,-12.24
2016-11-09T02:51:47.514Z,-12.27
2016-11-09T02:52:47.493Z,-12.19
2016-11-09T02:53:47.461Z,-12.27
2016-11-09T02:54:47.427Z,-12.3
2016-11-09T02:55:47.412Z,-12.28
2016-11-09T02:56:47.359Z,-12.2
2016-11-09T02:57:47.344Z,-12.21
2016-11-09T02:58:47.317Z,-12.34
2016-11-09T02:59:47.314Z,-12.39
2016-11-09T03:00:47.289Z,-12.39
2016-11-09T03:01:47.251Z,-12.38
2016-11-09T03:02:47.213Z,-12.48
2016-11-09T03:03:47.203Z,-12.52
2016-11-09T03:04:47.165Z,-12.48
2016-11-09T03:05:47.159Z,-12.34
2016-11-09T03:06:47.099Z,-12.17
2016-11-09T03:07:47.087Z,-12.21
2016-11-09T03:08:47.074Z,-12.12
2016-11-09T03:09:47.037Z,-12.19
2016-11-09T03:10:47.029Z,-12.13
2016-11-09T03:11:46.987Z,-12.27
2016-11-09T03:12:46.970Z,-12.32
2016-11-09T03:13:46.919Z,-12.45
2016-11-09T03:14:46.914Z,-12.57
2016-11-09T03:15:46.864Z,-12.52
2016-11-09T03:16:46.867Z,-12.62
2016-11-09T03:17:46.823Z,-12.72
2016-11-09T03:18:46.804Z,-12.6
2016-11-09T03:19:46.788Z,-12.6
2016-11-09T03:20:46.730Z,-12.57
2016-11-09T03:21:46.738Z,-12.67
2016-11-09T03:22:46.701Z,-12.69
2016-11-09T03:23:46.653Z,-12.63
2016-11-09T03:24:46.632Z,-12.67
2016-11-09T03:25:46.623Z,-12.63
2016-11-09T03:26:46.589Z,-12.6
2016-11-09T03:27:46.555Z,-12.72
2016-11-09T03:28:46.541Z,-12.69
2016-11-09T03:29:46.506Z,-12.81
2016-11-09T03:30:46.499Z,-12.67
2016-11-09T03:31:46.479Z,-12.57
2016-11-09T03:32:46.438Z,-12.67
2016-11-09T03:33:46.411Z,-12.62
2016-11-09T03:34:46.392Z,-12.7
2016-11-09T03:35:46.357Z,-12.78
2016-11-09T03:36:46.345Z,-12.81
2016-11-09T03:37:46.308Z,-12.67
2016-11-09T03:38:46.289Z,-12.7
2016-11-09T03:39:46.254Z,-12.75
2016-11-09T03:40:46.205Z,-12.67
2016-11-09T03:41:46.214Z,-12.63
2016-11-09T03:42:46.177Z,-12.74
2016-11-09T03:43:46.132Z,-12.85
2016-11-09T03:44:46.110Z,-12.87
2016-11-09T03:45:46.097Z,-12.95
2016-11-09T03:46:46.048Z,-12.95
2016-11-09T03:47:46.025Z,-12.99
2016-11-09T03:48:46.022Z,-12.9
2016-11-09T03:49:45.998Z,-12.85
2016-11-09T03:50:45.955Z,-12.94
2016-11-09T03:51:45.942Z,-12.92
2016-11-09T03:52:45.926Z,-12.94
2016-11-09T03:53:45.879Z,-12.88
2016-11-09T03:54:45.874Z,-12.92
2016-11-09T03:55:45.812Z,-12.88
2016-11-09T03:56:45.806Z,-12.83
2016-11-09T03:57:45.796Z,-12.63
2016-11-09T03:58:45.751Z,-12.48
2016-11-09T03:59:45.742Z,-12.48
2016-11-09T04:00:45.697Z,-12.63
2016-11-09T04:01:45.675Z,-12.78
2016-11-09T04:02:45.652Z,-12.83
2016-11-09T04:03:45.626Z,-12.87
2016-11-09T04:04:45.588Z,-12.81
2016-11-09T04:05:45.588Z,-12.81
2016-11-09T04:06:45.556Z,-12.81
2016-11-09T04:07:45.524Z,-12.8
2016-11-09T04:08:45.498Z,-12.64
2016-11-09T04:09:45.487Z,-12.6
2016-11-09T04:10:45.450Z,-12.56
2016-11-09T04:11:45.431Z,-12.41
2016-11-09T04:12:45.403Z,-12.34
2016-11-09T04:13:45.359Z,-12.34
2016-11-09T04:14:45.330Z,-12.32
2016-11-09T04:15:45.305Z,-12.34
2016-11-09T04:16:45.289Z,-12.38
2016-11-09T04:17:45.241Z,-12.45
2016-11-09T04:18:45.254Z,-12.48
2016-11-09T04:19:45.208Z,-12.56
2016-11-09T04:20:45.194Z,-12.63
2016-11-09T04:21:45.170Z,-12.64
2016-11-09T04:22:45.147Z,-12.7
2016-11-09T04:23:45.096Z,-12.7
2016-11-09T04:24:45.080Z,-12.62
2016-11-09T04:25:45.063Z,-12.48
2016-11-09T04:26:45.026Z,-12.56
2016-11-09T04:27:44.980Z,-12.52
2016-11-09T04:28:44.982Z,-12.6
2016-11-09T04:29:44.960Z,-12.56
2016-11-09T04:30:44.911Z,-12.43
2016-11-09T04:31:44.897Z,-12.56
2016-11-09T04:32:44.861Z,-12.63
2016-11-09T04:33:44.841Z,-12.54
2016-11-09T04:34:44.829Z,-12.57
2016-11-09T04:35:44.788Z,-12.66
2016-11-09T04:36:44.782Z,-12.72
2016-11-09T04:37:44.748Z,-12.69
2016-11-09T04:38:44.700Z,-12.7
2016-11-09T04:39:44.714Z,-12.74
2016-11-09T04:40:44.656Z,-12.67
2016-11-09T04:41:44.628Z,-12.7
2016-11-09T04:42:44.590Z,-12.75
2016-11-09T04:43:44.566Z,-12.75
2016-11-09T04:44:44.534Z,-12.69
2016-11-09T04:45:44.523Z,-12.69
2016-11-09T04:46:44.513Z,-12.75
2016-11-09T04:47:44.471Z,-12.84
2016-11-09T04:48:44.457Z,-12.78
2016-11-09T04:49:44.403Z,-12.84
2016-11-09T04:50:44.403Z,-12.88
2016-11-09T04:51:44.348Z,-12.9
2016-11-09T04:52:44.380Z,-12.9
2016-11-09T04:53:44.327Z,-12.95
2016-11-09T04:54:44.262Z,-12.87
2016-11-09T04:55:44.259Z,-12.85
2016-11-09T04:56:44.218Z,-12.95
2016-11-09T04:57:44.218Z,-12.88
2016-11-09T04:58:44.160Z,-12.98
2016-11-09T04:59:44.144Z,-13.06
2016-11-09T05:00:44.122Z,-13.05
2016-11-09T05:01:44.092Z,-13.01
2016-11-09T05:02:44.086Z,-13.02
2016-11-09T05:03:44.047Z,-12.99
2016-11-09T05:04:44.016Z,-12.85
2016-11-09T05:05:43.992Z,-12.81
2016-11-09T05:06:43.989Z,-12.81
2016-11-09T05:07:43.929Z,-12.88
2016-11-09T05:08:43.919Z,-12.98
2016-11-09T05:09:43.881Z,-13.06
2016-11-09T05:10:43.876Z,-13.02
2016-11-09T05:11:43.826Z,-12.98
2016-11-09T05:12:43.825Z,-12.94
2016-11-09T05:13:43.798Z,-12.96
2016-11-09T05:14:43.775Z,-12.87
2016-11-09T05:15:43.711Z,-12.83
2016-11-09T05:16:43.701Z,-12.83
2016-11-09T05:17:43.671Z,-12.92
2016-11-09T05:18:43.659Z,-12.94
2016-11-09T05:19:43.624Z,-12.92
2016-11-09T05:20:43.597Z,-12.96
2016-11-09T05:21:43.570Z,-12.95
2016-11-09T05:22:43.548Z,-12.85
2016-11-09T05:23:43.523Z,-12.87
2016-11-09T05:24:43.508Z,-12.83
2016-11-09T05:25:43.464Z,-12.96
2016-11-09T05:26:43.441Z,-13.05
2016-11-09T05:27:43.418Z,-13.06
2016-11-09T05:28:43.390Z,-13.24
2016-11-09T05:29:43.372Z,-13.22
2016-11-09T05:30:43.348Z,-13.16
2016-11-09T05:31:43.325Z,-13.23
2016-11-09T05:32:43.263Z,-13.2
2016-11-09T05:33:43.255Z,-13.22
2016-11-09T05:34:43.219Z,-13.16
2016-11-09T05:35:43.200Z,-13.17
2016-11-09T05:36:43.170Z,-13.17
2016-11-09T05:37:43.139Z,-13.19
2016-11-09T05:38:43.131Z,-13.17
2016-11-09T05:39:43.095Z,-13.24
2016-11-09T05:40:43.064Z,-13.12
2016-11-09T05:41:43.048Z,-13.09
2016-11-09T05:42:43.020Z,-13.05
2016-11-09T05:43:43.198Z,-13.14
2016-11-09T05:44:42.942Z,-13.12
2016-11-09T05:45:42.925Z,-13.2
2016-11-09T05:46:42.945Z,-13.16
2016-11-09T05:47:42.874Z,-13.19
2016-11-09T05:48:42.844Z,-13.27
2016-11-09T05:49:42.811Z,-13.2
2016-11-09T05:50:42.782Z,-13.19
2016-11-09T05:51:42.789Z,-13.16
2016-11-09T05:52:42.861Z,-13.2
2016-11-09T05:53:43.041Z,-13.12
2016-11-09T05:54:42.672Z,-13.06
2016-11-09T05:55:42.673Z,-13.01
2016-11-09T05:56:42.647Z,-13.02
2016-11-09T05:57:42.594Z,-13.04
2016-11-09T05:58:42.582Z,-13.01
2016-11-09T05:59:42.551Z,-13.04
2016-11-09T06:00:42.576Z,-13.09
2016-11-09T06:01:42.483Z,-13.16
2016-11-09T06:02:42.476Z,-13.17
2016-11-09T06:03:42.473Z,-13.13
2016-11-09T06:04:42.414Z,-13.13
2016-11-09T06:05:42.406Z,-13.05
2016-11-09T06:06:42.349Z,-13.16
2016-11-09T06:07:42.354Z,-13.14
2016-11-09T06:08:42.319Z,-13.09
2016-11-09T06:09:42.452Z,-13.14
2016-11-09T06:10:42.269Z,-13.16
2016-11-09T06:11:42.231Z,-13.06
2016-11-09T06:12:42.195Z,-13.13
2016-11-09T06:13:42.209Z,-13.05
2016-11-09T06:14:42.162Z,-12.99
2016-11-09T06:15:42.127Z,-13.01
2016-11-09T06:16:42.090Z,-12.92
2016-11-09T06:17:42.068Z,-12.84
2016-11-09T06:18:42.045Z,-12.9
2016-11-09T06:19:42.007Z,-12.83
2016-11-09T06:20:42.004Z,-12.75
2016-11-09T06:21:41.944Z,-12.75
2016-11-09T06:22:41.947Z,-12.72
2016-11-09T06:23:41.900Z,-12.78
2016-11-09T06:24:41.863Z,-12.66
2016-11-09T06:25:41.850Z,-12.66
2016-11-09T06:26:41.819Z,-12.67
2016-11-09T06:27:41.804Z,-12.57
2016-11-09T06:28:41.772Z,-12.59
2016-11-09T06:29:41.758Z,-12.57
2016-11-09T06:30:41.724Z,-12.69
2016-11-09T06:31:41.678Z,-12.59
2016-11-09T06:32:41.655Z,-12.57
2016-11-09T06:33:41.643Z,-12.51
2016-11-09T06:34:41.804Z,-12.49
2016-11-09T06:35:41.779Z,-12.56
2016-11-09T06:36:41.555Z,-12.41
2016-11-09T06:37:41.559Z,-12.3
2016-11-09T06:38:41.497Z,-12.41
2016-11-09T06:39:41.491Z,-12.3
2016-11-09T06:40:41.444Z,-12.36
2016-11-09T06:41:41.412Z,-12.28
2016-11-09T06:42:41.397Z,-12.13
2016-11-09T06:43:41.355Z,-12.21
2016-11-09T06:44:41.327Z,-12.2
2016-11-09T06:45:41.317Z,-12.1
2016-11-09T06:46:41.273Z,-11.94
2016-11-09T06:47:41.262Z,-11.99
2016-11-09T06:48:41.248Z,-12
2016-11-09T06:49:41.192Z,-11.91
2016-11-09T06:50:41.169Z,-11.87
2016-11-09T06:51:41.156Z,-11.82
2016-11-09T06:52:41.144Z,-11.81
2016-11-09T06:53:41.102Z,-11.7
2016-11-09T06:54:41.075Z,-11.64
2016-11-09T06:55:41.043Z,-11.55
2016-11-09T06:56:41.015Z,-11.38
2016-11-09T06:57:41.012Z,-11.37
2016-11-09T06:58:40.982Z,-11.2
2016-11-09T06:59:40.927Z,-11.19
2016-11-09T07:00:40.919Z,-11.17
2016-11-09T07:01:41.101Z,-11.22
2016-11-09T07:02:41.180Z,-11.19
2016-11-09T07:03:40.844Z,-11.1
2016-11-09T07:04:40.845Z,-11.07
2016-11-09T07:05:40.804Z,-11.19
2016-11-09T07:06:40.751Z,-11.13
2016-11-09T07:07:40.741Z,-11.13
2016-11-09T07:08:40.715Z,-11.11
2016-11-09T07:09:40.710Z,-10.9
2016-11-09T07:10:40.669Z,-10.92
2016-11-09T07:11:40.641Z,-10.68
2016-11-09T07:12:40.651Z,-10.5
2016-11-09T07:13:40.588Z,-10.7
2016-11-09T07:14:40.579Z,-10.78
2016-11-09T07:15:40.547Z,-10.95
2016-11-09T07:16:40.500Z,-11.07
2016-11-09T07:17:40.498Z,-10.99
2016-11-09T07:18:40.471Z,-10.92
2016-11-09T07:19:40.431Z,-10.76
2016-11-09T07:20:40.429Z,-10.73
2016-11-09T07:21:40.385Z,-10.73
2016-11-09T07:22:40.378Z,-10.7
2016-11-09T07:23:40.348Z,-10.7
2016-11-09T07:24:40.338Z,-10.6
2016-11-09T07:25:40.293Z,-10.56
2016-11-09T07:26:40.279Z,-10.47
2016-11-09T07:27:40.246Z,-10.46
2016-11-09T07:28:40.220Z,-10.39
2016-11-09T07:29:40.198Z,-10.49
2016-11-09T07:30:40.176Z,-10.47
2016-11-09T07:31:40.153Z,-10.63
2016-11-09T07:32:40.128Z,-10.73
2016-11-09T07:33:40.100Z,-10.88
2016-11-09T07:34:40.048Z,-10.9
2016-11-09T07:35:40.043Z,-10.8
2016-11-09T07:36:40.034Z,-10.81
2016-11-09T07:37:39.984Z,-10.8
2016-11-09T07:38:39.977Z,-10.81
2016-11-09T07:39:39.939Z,-10.74
2016-11-09T07:40:39.927Z,-10.7
2016-11-09T07:41:39.908Z,-10.67
2016-11-09T07:42:39.869Z,-10.7
2016-11-09T07:43:39.824Z,-10.7
2016-11-09T07:44:39.801Z,-10.55
2016-11-09T07:45:39.971Z,-10.6
2016-11-09T07:46:40.078Z,-10.55
2016-11-09T07:47:39.746Z,-10.55
2016-11-09T07:48:39.729Z,-10.49
2016-11-09T07:49:39.703Z,-10.47
2016-11-09T07:50:39.680Z,-10.55
2016-11-09T07:51:39.656Z,-10.55
2016-11-09T07:52:39.617Z,-10.53
2016-11-09T07:53:39.593Z,-10.6
2016-11-09T07:54:39.560Z,-10.53
2016-11-09T07:55:39.532Z,-10.52
2016-11-09T07:56:39.529Z,-10.46
2016-11-09T07:57:39.490Z,-10.39
2016-11-09T07:58:39.464Z,-10.39
2016-11-09T07:59:39.467Z,-10.42
2016-11-09T08:00:39.435Z,-10.24
2016-11-09T08:01:39.407Z,-10.11
2016-11-09T08:02:39.366Z,-10.08
2016-11-09T08:03:39.320Z,-10.21
2016-11-09T08:04:39.316Z,-10.11
2016-11-09T08:05:39.298Z,-10.08
2016-11-09T08:06:39.277Z,-10.1
2016-11-09T08:07:39.219Z,-10.29
2016-11-09T08:08:39.224Z,-10.21
2016-11-09T08:09:39.195Z,-10.03
2016-11-09T08:10:39.145Z,-10.05
2016-11-09T08:11:39.127Z,-10.08
2016-11-09T08:12:39.131Z,-9.88
2016-11-09T08:13:39.104Z,-9.9
2016-11-09T08:14:39.067Z,-9.7
2016-11-09T08:15:39.044Z,-9.68
2016-11-09T08:16:39.195Z,-9.78
2016-11-09T08:17:38.991Z,-9.74
2016-11-09T08:18:38.965Z,-9.68
2016-11-09T08:19:38.945Z,-9.78
2016-11-09T08:20:38.915Z,-9.7
2016-11-09T08:21:38.902Z,-9.67
2016-11-09T08:22:38.862Z,-9.81
2016-11-09T08:23:38.843Z,-9.79
2016-11-09T08:24:38.803Z,-9.74
2016-11-09T08:25:38.797Z,-9.79
2016-11-09T08:26:38.772Z,-9.61
2016-11-09T08:27:38.725Z,-9.53
2016-11-09T08:28:38.725Z,-9.38
2016-11-09T08:29:38.693Z,-9.56
2016-11-09T08:30:39.253Z,-9.57
2016-11-09T08:31:38.655Z,-9.54
2016-11-09T08:32:38.628Z,-9.61
2016-11-09T08:33:38.634Z,-9.72
2016-11-09T08:34:38.590Z,-9.67
2016-11-09T08:35:38.545Z,-9.53
2016-11-09T08:36:38.536Z,-9.54
2016-11-09T08:37:38.502Z,-9.35
2016-11-09T08:38:38.467Z,-9.41
2016-11-09T08:39:38.749Z,-9.12
2016-11-09T08:40:38.953Z,-9.1
2016-11-09T08:41:38.408Z,-8.92
2016-11-09T08:42:38.352Z,-8.97
2016-11-09T08:43:38.364Z,-8.97
2016-11-09T08:44:38.321Z,-8.68
2016-11-09T08:45:38.306Z,-8.64
2016-11-09T08:46:38.274Z,-8.53
2016-11-09T08:47:38.256Z,-8.56
2016-11-09T08:48:38.229Z,-8.32
2016-11-09T08:49:38.186Z,-8.35
2016-11-09T08:50:38.186Z,-8.31
2016-11-09T08:51:38.174Z,-8.25
2016-11-09T08:52:38.547Z,-8.22
2016-11-09T08:53:38.105Z,-8.42
2016-11-09T08:54:38.091Z,-8.32
2016-11-09T08:55:38.079Z,-8.13
2016-11-09T08:56:38.052Z,-8.03
2016-11-09T08:57:38.013Z,-7.88
2016-11-09T08:58:37.999Z,-7.87
2016-11-09T08:59:37.979Z,-8.07
2016-11-09T09:00:37.957Z,-8.22
2016-11-09T09:01:37.936Z,-8.16
2016-11-09T09:02:37.890Z,-7.92
2016-11-09T09:03:37.899Z,-7.7
2016-11-09T09:04:37.864Z,-7.64
2016-11-09T09:05:37.852Z,-7.78
2016-11-09T09:06:37.811Z,-7.87
2016-11-09T09:07:37.790Z,-7.67
2016-11-09T09:08:37.752Z,-7.64
2016-11-09T09:09:37.749Z,-7.98
2016-11-09T09:10:37.751Z,-8.04
2016-11-09T09:11:37.707Z,-7.8
2016-11-09T09:12:37.697Z,-7.46
2016-11-09T09:13:37.642Z,-7.28
2016-11-09T09:14:37.641Z,-7.03
2016-11-09T09:15:37.613Z,-6.87
2016-11-09T09:16:37.602Z,-6.79
2016-11-09T09:17:37.557Z,-6.84
2016-11-09T09:18:37.562Z,-7.08
2016-11-09T09:19:37.538Z,-7.28
2016-11-09T09:20:37.496Z,-7.52
2016-11-09T09:21:37.475Z,-7.89
2016-11-09T09:22:37.446Z,-8.08
2016-11-09T09:23:37.419Z,-8.45
2016-11-09T09:24:37.394Z,-8.43
2016-11-09T09:25:37.390Z,-8.18
2016-11-09T09:26:37.386Z,-7.98
2016-11-09T09:27:37.329Z,-7.42
2016-11-09T09:28:37.305Z,-7.27
2016-11-09T09:29:37.300Z,-7.35
2016-11-09T09:30:37.284Z,-7.42
2016-11-09T09:31:37.304Z,-7.2
2016-11-09T09:32:37.516Z,-7.38
2016-11-09T09:33:37.193Z,-7.73
2016-11-09T09:34:37.179Z,-7.7
2016-11-09T09:35:37.158Z,-7.66
2016-11-09T09:36:37.147Z,-7.39
2016-11-09T09:37:37.111Z,-7.45
2016-11-09T09:38:37.080Z,-7.62
2016-11-09T09:39:37.087Z,-7.77
2016-11-09T09:40:37.036Z,-7.92
2016-11-09T09:41:37.336Z,-7.8
2016-11-09T09:42:37.007Z,-7.88
2016-11-09T09:43:36.993Z,-7.6
2016-11-09T09:44:36.932Z,-7.23
2016-11-09T09:45:36.913Z,-7.16
2016-11-09T09:46:36.919Z,-7.39
2016-11-09T09:47:36.883Z,-7.41
2016-11-09T09:48:36.861Z,-7.21
2016-11-09T09:49:36.824Z,-6.98
2016-11-09T09:50:37.148Z,-7.42
2016-11-09T09:51:37.302Z,-7.56
2016-11-09T09:52:36.766Z,-7.39
2016-11-09T09:53:36.737Z,-7.37
2016-11-09T09:54:36.729Z,-7.28
2016-11-09T09:55:36.712Z,-7.03
2016-11-09T09:56:36.677Z,-6.87
2016-11-09T09:57:36.706Z,-6.79
2016-11-09T09:58:36.623Z,-6.72
2016-11-09T09:59:36.612Z,-6.72
2016-11-09T10:00:36.580Z,-6.95
2016-11-09T10:01:36.572Z,-7.1
2016-11-09T10:02:36.556Z,-7.52
2016-11-09T10:03:36.508Z,-7.74
2016-11-09T10:04:36.515Z,-7.71
2016-11-09T10:05:36.579Z,-7.59
2016-11-09T10:06:36.461Z,-7.32
2016-11-09T10:07:36.436Z,-7.2
2016-11-09T10:08:36.415Z,-6.95
2016-11-09T10:09:36.376Z,-6.98
2016-11-09T10:10:36.377Z,-6.71
2016-11-09T10:11:36.342Z,-6.85
2016-11-09T10:12:36.321Z,-6.74
2016-11-09T10:13:36.608Z,-6.95
2016-11-09T10:14:36.283Z,-7.28
2016-11-09T10:15:36.267Z,-7.17
2016-11-09T10:16:36.229Z,-7.27
2016-11-09T10:17:36.218Z,-7.17
2016-11-09T10:18:36.184Z,-7.13
2016-11-09T10:19:36.153Z,-6.95
2016-11-09T10:20:36.152Z,-6.71
2016-11-09T10:21:36.135Z,-6.72
2016-11-09T10:22:36.125Z,-6.93
2016-11-09T10:23:36.103Z,-6.71
2016-11-09T10:24:36.068Z,-6.71
2016-11-09T10:25:36.053Z,-6.71
2016-11-09T10:26:36.036Z,-6.96
2016-11-09T10:27:35.997Z,-7.13
2016-11-09T10:28:35.957Z,-7.16
2016-11-09T10:29:35.963Z,-7.18
2016-11-09T10:30:35.940Z,-7.32
2016-11-09T10:31:36.194Z,-7.28
2016-11-09T10:32:35.869Z,-7.2
2016-11-09T10:33:35.878Z,-7.21
2016-11-09T10:34:35.828Z,-7.34
2016-11-09T10:35:35.833Z,-7.46
2016-11-09T10:36:35.782Z,-7.37
2016-11-09T10:37:35.790Z,-7.32
2016-11-09T10:38:35.758Z,-7.35
2016-11-09T10:39:35.722Z,-7.46
2016-11-09T10:40:35.709Z,-7.78
2016-11-09T10:41:35.682Z,-7.88
2016-11-09T10:42:35.645Z,-7.64
2016-11-09T10:43:35.626Z,-7.66
2016-11-09T10:44:35.605Z,-7.77
2016-11-09T10:45:35.598Z,-7.68
2016-11-09T10:46:35.581Z,-7.87
2016-11-09T10:47:35.549Z,-7.73
2016-11-09T10:48:35.545Z,-7.84
2016-11-09T10:49:35.499Z,-7.8
2016-11-09T10:50:35.469Z,-7.95
2016-11-09T10:51:35.471Z,-7.92
2016-11-09T10:52:35.433Z,-7.76
2016-11-09T10:53:35.459Z,-7.71
2016-11-09T10:54:35.392Z,-7.94
2016-11-09T10:55:35.391Z,-8.07
2016-11-09T10:56:35.369Z,-8.03
2016-11-09T10:57:35.328Z,-7.71
2016-11-09T10:58:35.322Z,-7.5
2016-11-09T10:59:35.274Z,-7.47
2016-11-09T11:00:35.266Z,-7.46
2016-11-09T11:01:35.231Z,-7.45
2016-11-09T11:02:35.534Z,-7.35
2016-11-09T11:03:35.188Z,-7.27
2016-11-09T11:04:35.161Z,-7.34
2016-11-09T11:05:35.161Z,-7.27
2016-11-09T11:06:35.116Z,-7.07
2016-11-09T11:07:35.092Z,-6.96
2016-11-09T11:08:35.068Z,-6.74
2016-11-09T11:09:35.054Z,-6.53
2016-11-09T11:10:35.040Z,-6.56
2016-11-09T11:11:35.017Z,-6.55
2016-11-09T11:12:34.976Z,-6.38
2016-11-09T11:13:34.976Z,-6.26
2016-11-09T11:14:34.942Z,-6.29
2016-11-09T11:15:35.258Z,-6.45
2016-11-09T11:16:34.912Z,-6.41
2016-11-09T11:17:34.892Z,-6.56
2016-11-09T11:18:34.870Z,-6.37
2016-11-09T11:19:34.836Z,-6.41
2016-11-09T11:20:34.828Z,-6.48
2016-11-09T11:21:34.803Z,-6.37
2016-11-09T11:22:34.797Z,-6.48
2016-11-09T11:23:34.765Z,-6.45
2016-11-09T11:24:34.735Z,-6.59
2016-11-09T11:25:34.733Z,-6.77
2016-11-09T11:26:34.702Z,-6.71
2016-11-09T11:27:34.688Z,-6.72
2016-11-09T11:28:34.643Z,-7.03
2016-11-09T11:29:34.619Z,-6.93
2016-11-09T11:30:34.615Z,-6.95
2016-11-09T11:31:34.578Z,-6.96
2016-11-09T11:32:34.561Z,-6.95
2016-11-09T11:33:34.563Z,-7.13
2016-11-09T11:34:34.526Z,-7.18
2016-11-09T11:35:34.498Z,-7.07
2016-11-09T11:36:34.457Z,-7.21
2016-11-09T11:37:34.454Z,-7.18
2016-11-09T11:38:34.433Z,-7.24
2016-11-09T11:39:34.423Z,-7.27
2016-11-09T11:40:34.406Z,-7.35
2016-11-09T11:41:34.352Z,-7.55
2016-11-09T11:42:34.333Z,-7.55
2016-11-09T11:43:34.337Z,-7.35
2016-11-09T11:44:34.320Z,-7.2
2016-11-09T11:45:34.265Z,-6.99
2016-11-09T11:46:34.256Z,-6.79
2016-11-09T11:47:34.229Z,-6.5
2016-11-09T11:48:34.220Z,-6.37
2016-11-09T11:49:34.193Z,-6.61
2016-11-09T11:50:34.191Z,-7.18
2016-11-09T11:51:34.139Z,-7.27
2016-11-09T11:52:34.115Z,-7.13
2016-11-09T11:53:34.436Z,-6.98
2016-11-09T11:54:34.086Z,-6.78
2016-11-09T11:55:34.072Z,-6.52
2016-11-09T11:56:34.063Z,-6.16
2016-11-09T11:57:34.040Z,-5.96
2016-11-09T11:58:34.001Z,-5.77
2016-11-09T11:59:33.986Z,-5.7
2016-11-09T12:00:33.980Z,-5.71
2016-11-09T12:01:33.941Z,-5.63
2016-11-09T12:02:33.922Z,-5.84
2016-11-09T12:03:33.902Z,-5.81
2016-11-09T12:04:33.881Z,-6.05
2016-11-09T12:05:33.852Z,-6.41
2016-11-09T12:06:33.850Z,-6.5
2016-11-09T12:07:33.815Z,-6.82
2016-11-09T12:08:33.780Z,-6.84
2016-11-09T12:09:33.776Z,-6.84
2016-11-09T12:10:33.747Z,-6.72
2016-11-09T12:11:33.735Z,-6.53
2016-11-09T12:12:33.689Z,-6.48
2016-11-09T12:13:33.686Z,-6.45
2016-11-09T12:14:33.673Z,-6.59
2016-11-09T12:15:33.647Z,-6.53
2016-11-09T12:16:33.960Z,-6.48
2016-11-09T12:17:33.621Z,-6.42
2016-11-09T12:18:33.577Z,-6.42
2016-11-09T12:19:33.603Z,-6.66
2016-11-09T12:20:33.536Z,-6.64
2016-11-09T12:21:33.536Z,-6.75
2016-11-09T12:22:33.497Z,-6.82
2016-11-09T12:23:33.458Z,-6.69
2016-11-09T12:24:33.457Z,-6.64
2016-11-09T12:25:33.428Z,-6.67
2016-11-09T12:26:33.398Z,-6.52
2016-11-09T12:27:33.396Z,-6.39
2016-11-09T12:28:33.359Z,-6.24
2016-11-09T12:29:33.354Z,-6.23
2016-11-09T12:30:33.335Z,-6.24
2016-11-09T12:31:33.290Z,-6.29
2016-11-09T12:32:33.582Z,-6.26
2016-11-09T12:33:33.269Z,-6.2
2016-11-09T12:34:33.243Z,-6.59
2016-11-09T12:35:33.198Z,-6.37
2016-11-09T12:36:33.193Z,-6.52
2016-11-09T12:37:33.185Z,-6.41
2016-11-09T12:38:33.150Z,-6.53
2016-11-09T12:39:33.151Z,-6.38